createdAt,value
2022-08-17T00:00:34.513Z,19.13
2022-08-17T00:03:10.322Z,19.06
2022-08-17T00:05:45.970Z,18.83
2022-08-17T00:08:15.843Z,18.77
2022-08-17T00:10:45.298Z,18.86
2022-08-17T00:13:19.681Z,18.91
2022-08-17T00:15:47.380Z,18.93
2022-08-17T00:19:06.324Z,18.92
2022-08-17T00:21:02.912Z,18.88
2022-08-17T00:23:30.266Z,18.86
2022-08-17T00:25:57.022Z,18.75
2022-08-17T00:28:24.158Z,18.75
2022-08-17T00:30:53.525Z,18.79
2022-08-17T00:33:27.710Z,18.79
2022-08-17T00:35:56.692Z,18.79
2022-08-17T00:38:25.620Z,18.77
2022-08-17T00:40:59.170Z,18.69
2022-08-17T00:43:33.217Z,18.69
2022-08-17T00:46:09.445Z,18.73
2022-08-17T00:48:37.600Z,18.74
2022-08-17T00:51:12.390Z,18.72
2022-08-17T00:53:44.574Z,18.70
2022-08-17T00:56:21.054Z,18.77
2022-08-17T00:58:52.317Z,18.72
2022-08-17T01:01:21.169Z,18.41
2022-08-17T01:03:52.110Z,18.33
2022-08-17T01:06:21.263Z,18.33
2022-08-17T01:08:52.110Z,18.27
2022-08-17T01:11:25.388Z,18.22
2022-08-17T01:13:52.671Z,18.28
2022-08-17T01:16:30.859Z,18.34
2022-08-17T01:19:06.588Z,18.23
2022-08-17T01:21:41.427Z,18.05
2022-08-17T01:24:09.030Z,17.95
2022-08-17T01:26:40.408Z,17.95
2022-08-17T01:29:07.549Z,17.93
2022-08-17T01:31:38.705Z,18.02
2022-08-17T01:34:09.630Z,18.06
2022-08-17T01:36:39.292Z,18.05
2022-08-17T01:39:11.293Z,18.11
2022-08-17T01:41:41.072Z,18.01
2022-08-17T01:44:08.273Z,17.83
2022-08-17T01:46:37.008Z,17.79
2022-08-17T01:49:10.467Z,17.79
2022-08-17T01:51:38.184Z,17.87
2022-08-17T01:54:10.748Z,18.00
2022-08-17T01:56:41.929Z,18.08
2022-08-17T01:59:08.963Z,18.12
2022-08-17T02:01:37.949Z,18.09
2022-08-17T02:04:06.060Z,17.89
2022-08-17T02:06:45.129Z,17.71
2022-08-17T02:09:21.718Z,17.73
2022-08-17T02:11:50.866Z,17.72
2022-08-17T02:14:18.050Z,17.78
2022-08-17T02:16:44.807Z,17.83
2022-08-17T02:19:13.978Z,17.81
2022-08-17T02:21:41.736Z,17.86
2022-08-17T02:24:16.441Z,17.98
2022-08-17T02:26:43.752Z,18.13
2022-08-17T02:29:10.472Z,18.08
2022-08-17T02:31:37.956Z,18.09
2022-08-17T02:34:06.469Z,18.09
2022-08-17T02:36:35.405Z,18.08
2022-08-17T02:39:08.892Z,18.09
2022-08-17T02:41:36.718Z,17.95
2022-08-17T02:44:04.122Z,17.98
2022-08-17T02:46:32.373Z,17.98
2022-08-17T02:48:59.549Z,17.94
2022-08-17T02:51:27.012Z,17.92
2022-08-17T02:54:40.659Z,17.98
2022-08-17T02:56:41.035Z,18.08
2022-08-17T02:59:08.036Z,18.08
2022-08-17T03:01:35.473Z,18.00
2022-08-17T03:04:03.462Z,17.94
2022-08-17T03:06:32.544Z,17.97
2022-08-17T03:08:59.461Z,18.09
2022-08-17T03:11:26.546Z,18.08
2022-08-17T03:13:53.252Z,18.11
2022-08-17T03:16:20.404Z,18.02
2022-08-17T03:18:47.274Z,18.10
2022-08-17T03:21:14.128Z,18.09
2022-08-17T03:23:43.703Z,17.90
2022-08-17T03:26:13.483Z,17.97
2022-08-17T03:28:42.816Z,18.15
2022-08-17T03:31:10.134Z,18.00
2022-08-17T03:33:38.052Z,18.28
2022-08-17T03:36:05.193Z,18.21
2022-08-17T03:38:39.224Z,18.15
2022-08-17T03:41:07.049Z,18.14
2022-08-17T03:43:34.666Z,18.15
2022-08-17T03:46:34.619Z,18.17
2022-08-17T03:49:26.261Z,18.18
2022-08-17T03:52:12.444Z,17.86
2022-08-17T03:54:57.833Z,17.83
2022-08-17T03:57:25.791Z,18.06
2022-08-17T03:59:53.787Z,17.97
2022-08-17T04:02:28.309Z,18.02
2022-08-17T04:04:55.367Z,18.10
2022-08-17T04:07:25.704Z,18.05
2022-08-17T04:09:52.679Z,17.95
2022-08-17T04:12:22.873Z,17.82
2022-08-17T04:14:53.346Z,17.94
2022-08-17T04:17:24.594Z,17.99
2022-08-17T04:19:52.036Z,18.08
2022-08-17T04:22:31.819Z,18.17
2022-08-17T04:25:17.199Z,18.05
2022-08-17T04:27:44.065Z,17.99
2022-08-17T04:30:11.680Z,17.80
2022-08-17T04:33:05.901Z,17.85
2022-08-17T04:35:37.121Z,17.74
2022-08-17T04:38:04.432Z,17.69
2022-08-17T04:40:49.846Z,17.70
2022-08-17T04:43:19.847Z,17.61
2022-08-17T04:46:04.815Z,17.48
2022-08-17T04:48:37.057Z,17.83
2022-08-17T04:51:17.259Z,17.91
2022-08-17T04:53:47.638Z,17.88
2022-08-17T04:56:21.572Z,17.73
2022-08-17T04:58:50.931Z,17.68
2022-08-17T05:01:24.127Z,17.76
2022-08-17T05:03:53.526Z,17.91
2022-08-17T05:06:20.808Z,18.17
2022-08-17T05:08:47.683Z,18.19
2022-08-17T05:11:14.917Z,18.20
2022-08-17T05:13:41.929Z,18.32
2022-08-17T05:16:09.223Z,18.47
2022-08-17T05:18:37.298Z,18.39
2022-08-17T05:21:04.472Z,18.47
2022-08-17T05:23:33.689Z,18.47
2022-08-17T05:26:10.355Z,18.68
2022-08-17T05:28:48.023Z,18.80
2022-08-17T05:31:14.929Z,18.83
2022-08-17T05:33:46.248Z,18.89
2022-08-17T05:36:37.920Z,19.12
2022-08-17T05:39:02.840Z,18.97
2022-08-17T05:41:29.599Z,18.83
2022-08-17T05:43:56.757Z,18.98
2022-08-17T05:46:50.819Z,18.63
2022-08-17T05:49:22.669Z,18.77
2022-08-17T05:51:58.397Z,18.79
2022-08-17T05:54:47.071Z,18.83
2022-08-17T05:57:25.850Z,18.78
2022-08-17T06:00:01.601Z,18.90
2022-08-17T06:02:47.999Z,18.76
2022-08-17T06:05:53.671Z,19.14
2022-08-17T06:08:38.347Z,18.76
2022-08-17T06:11:27.132Z,19.00
2022-08-17T06:14:13.273Z,19.08
2022-08-17T06:16:44.999Z,19.21
2022-08-17T06:19:27.830Z,19.41
2022-08-17T06:21:55.120Z,19.42
2022-08-17T06:24:40.679Z,19.45
2022-08-17T06:27:17.958Z,19.54
2022-08-17T06:29:58.159Z,19.86
2022-08-17T06:32:25.641Z,19.91
2022-08-17T06:34:53.636Z,19.80
2022-08-17T06:37:39.126Z,19.88
2022-08-17T06:40:28.259Z,19.87
2022-08-17T06:43:14.810Z,19.82
2022-08-17T06:45:50.452Z,20.03
2022-08-17T06:48:26.855Z,19.97
2022-08-17T06:51:11.105Z,21.21
2022-08-17T06:54:07.037Z,21.30
2022-08-17T06:56:52.787Z,21.38
2022-08-17T06:59:53.195Z,21.24
2022-08-17T07:03:00.001Z,21.89
2022-08-17T07:05:38.782Z,22.42
2022-08-17T07:08:26.406Z,22.33
2022-08-17T07:11:00.936Z,21.72
2022-08-17T07:13:59.988Z,21.60
2022-08-17T07:16:30.658Z,22.53
2022-08-17T07:18:59.339Z,22.19
2022-08-17T07:21:28.990Z,22.20
2022-08-17T07:24:03.040Z,22.73
2022-08-17T07:26:29.780Z,22.70
2022-08-17T07:28:57.261Z,22.57
2022-08-17T07:31:28.588Z,22.78
2022-08-17T07:34:06.732Z,23.27
2022-08-17T07:36:34.416Z,22.60
2022-08-17T07:39:02.957Z,22.73
2022-08-17T07:41:57.826Z,23.23
2022-08-17T07:44:20.879Z,23.38
2022-08-17T07:47:12.050Z,23.38
2022-08-17T07:49:44.291Z,22.58
2022-08-17T07:52:48.045Z,23.15
2022-08-17T07:55:31.024Z,23.11
2022-08-17T07:57:59.150Z,23.30
2022-08-17T08:00:31.754Z,23.43
2022-08-17T08:03:18.461Z,24.12
2022-08-17T08:05:55.968Z,24.17
2022-08-17T08:08:28.508Z,24.53
2022-08-17T08:11:07.262Z,24.81
2022-08-17T08:13:40.402Z,24.93
2022-08-17T08:16:29.713Z,24.91
2022-08-17T08:18:59.751Z,24.66
2022-08-17T08:21:54.826Z,24.71
2022-08-17T08:24:36.720Z,24.67
2022-08-17T08:27:23.224Z,24.62
2022-08-17T08:30:00.150Z,24.69
2022-08-17T08:33:01.532Z,24.84
2022-08-17T08:35:29.657Z,24.97
2022-08-17T08:38:29.302Z,24.93
2022-08-17T08:41:02.509Z,24.67
2022-08-17T08:43:38.077Z,24.65
2022-08-17T08:46:35.525Z,24.49
2022-08-17T08:49:59.516Z,24.58
2022-08-17T08:52:31.045Z,24.46
2022-08-17T08:55:41.090Z,24.88
2022-08-17T08:58:31.801Z,24.65
2022-08-17T09:01:06.245Z,24.30
2022-08-17T09:04:11.839Z,24.18
2022-08-17T09:06:58.144Z,24.18
2022-08-17T09:09:42.617Z,24.28
2022-08-17T09:12:09.386Z,24.28
2022-08-17T09:14:48.657Z,24.22
2022-08-17T09:17:36.281Z,24.33
2022-08-17T09:20:28.189Z,24.50
2022-08-17T09:23:07.118Z,24.57
2022-08-17T09:25:49.813Z,24.73
2022-08-17T09:28:27.234Z,24.79
2022-08-17T09:31:03.547Z,25.06
2022-08-17T09:33:33.797Z,25.44
2022-08-17T09:36:11.518Z,25.46
2022-08-17T09:38:56.509Z,25.81
2022-08-17T09:41:29.355Z,25.37
2022-08-17T09:44:22.715Z,25.23
2022-08-17T09:47:07.380Z,25.81
2022-08-17T09:50:11.573Z,25.44
2022-08-17T09:52:38.298Z,25.75
2022-08-17T09:55:06.460Z,25.65
2022-08-17T09:57:46.553Z,25.69
2022-08-17T10:00:21.663Z,25.98
2022-08-17T10:03:19.908Z,26.23
2022-08-17T10:06:21.798Z,25.80
2022-08-17T10:09:02.226Z,26.23
2022-08-17T10:12:13.580Z,26.39
2022-08-17T10:14:59.250Z,26.87
2022-08-17T10:18:04.126Z,27.10
2022-08-17T10:20:49.643Z,27.47
2022-08-17T10:23:45.501Z,27.28
2022-08-17T10:26:23.136Z,27.19
2022-08-17T10:28:58.708Z,28.09
2022-08-17T10:31:42.395Z,28.17
2022-08-17T10:34:42.072Z,27.86
2022-08-17T10:37:46.557Z,28.04
2022-08-17T10:40:37.019Z,28.01
2022-08-17T10:43:44.673Z,27.71
2022-08-17T10:46:42.403Z,27.48
2022-08-17T10:49:18.372Z,27.99
2022-08-17T10:51:47.975Z,28.39
2022-08-17T10:54:39.329Z,28.61
2022-08-17T10:57:32.116Z,28.84
2022-08-17T11:00:00.814Z,28.52
2022-08-17T11:02:50.022Z,28.58
2022-08-17T11:05:43.484Z,28.38
2022-08-17T11:08:22.992Z,28.39
2022-08-17T11:10:52.948Z,28.19
2022-08-17T11:16:08.943Z,28.72
2022-08-17T11:18:57.252Z,28.64
2022-08-17T11:22:07.085Z,28.77
2022-08-17T11:24:33.680Z,28.42
2022-08-17T11:27:02.926Z,28.75
2022-08-17T11:29:37.505Z,28.93
2022-08-17T11:32:12.530Z,29.02
2022-08-17T11:34:44.618Z,29.18
2022-08-17T11:37:11.501Z,29.31
2022-08-17T11:40:05.463Z,29.31
2022-08-17T11:42:50.759Z,29.52
2022-08-17T11:45:32.403Z,29.38
2022-08-17T11:48:55.297Z,29.23
2022-08-17T11:51:36.366Z,28.68
2022-08-17T11:56:52.986Z,28.57
2022-08-17T11:59:35.965Z,28.91
2022-08-17T12:02:35.217Z,28.66
2022-08-17T12:05:11.961Z,28.72
2022-08-17T12:07:46.388Z,28.69
2022-08-17T12:10:17.739Z,28.91
2022-08-17T12:12:47.155Z,28.76
2022-08-17T12:15:21.952Z,29.21
2022-08-17T12:17:54.778Z,29.28
2022-08-17T12:20:24.401Z,29.22
2022-08-17T12:23:09.772Z,29.41
2022-08-17T12:25:56.853Z,29.50
2022-08-17T12:28:33.153Z,29.69
2022-08-17T12:31:05.938Z,29.29
2022-08-17T12:33:35.976Z,29.41
2022-08-17T12:36:08.927Z,29.26
2022-08-17T12:38:38.222Z,28.77
2022-08-17T12:41:25.976Z,28.66
2022-08-17T12:44:05.049Z,28.64
2022-08-17T12:46:44.766Z,28.57
2022-08-17T12:49:33.099Z,28.12
2022-08-17T12:52:25.727Z,27.67
2022-08-17T12:55:02.021Z,27.36
2022-08-17T12:57:43.660Z,27.37
2022-08-17T13:00:17.645Z,27.27
2022-08-17T13:02:48.626Z,27.11
2022-08-17T13:05:27.684Z,27.22
2022-08-17T13:07:56.305Z,27.24
2022-08-17T13:10:33.440Z,27.28
2022-08-17T13:13:17.619Z,27.12
2022-08-17T13:15:54.438Z,26.82
2022-08-17T13:18:36.339Z,26.90
2022-08-17T13:21:03.180Z,26.71
2022-08-17T13:23:31.405Z,26.55
2022-08-17T13:26:09.196Z,26.48
2022-08-17T13:28:37.544Z,26.48
2022-08-17T13:31:39.420Z,26.62
2022-08-17T13:35:02.763Z,26.53
2022-08-17T13:37:35.204Z,26.50
2022-08-17T13:40:21.776Z,26.41
2022-08-17T13:42:54.011Z,26.40
2022-08-17T13:45:35.390Z,26.12
2022-08-17T13:48:20.867Z,26.16
2022-08-17T13:50:56.632Z,26.40
2022-08-17T13:53:29.573Z,26.29
2022-08-17T13:56:33.363Z,26.31
2022-08-17T13:59:06.113Z,26.28
2022-08-17T14:01:39.524Z,26.22
2022-08-17T14:04:12.844Z,26.18
2022-08-17T14:06:53.355Z,26.28
2022-08-17T14:09:25.555Z,26.10
2022-08-17T14:11:54.109Z,26.32
2022-08-17T14:14:23.131Z,26.18
2022-08-17T14:16:51.841Z,26.34
2022-08-17T14:19:22.043Z,26.31
2022-08-17T14:21:49.587Z,26.60
2022-08-17T14:24:43.952Z,26.86
2022-08-17T14:27:12.118Z,26.87
2022-08-17T14:29:41.111Z,26.90
2022-08-17T14:32:17.107Z,26.83
2022-08-17T14:34:45.172Z,27.01
2022-08-17T14:37:12.501Z,27.16
2022-08-17T14:39:39.523Z,27.15
2022-08-17T14:42:06.466Z,27.12
2022-08-17T14:44:33.346Z,27.01
2022-08-17T14:47:00.012Z,26.59
2022-08-17T14:49:27.050Z,26.49
2022-08-17T14:51:53.990Z,26.39
2022-08-17T14:54:33.542Z,26.41
2022-08-17T14:57:22.495Z,26.18
2022-08-17T14:59:54.231Z,26.08
2022-08-17T15:02:29.481Z,26.07
2022-08-17T15:05:05.815Z,26.04
2022-08-17T15:07:32.521Z,25.99
2022-08-17T15:10:01.523Z,25.83
2022-08-17T15:12:33.342Z,25.97
2022-08-17T15:15:05.434Z,25.97
2022-08-17T15:17:44.736Z,25.91
2022-08-17T15:20:25.585Z,26.06
2022-08-17T15:22:56.093Z,26.06
2022-08-17T15:25:24.997Z,25.92
2022-08-17T15:27:52.254Z,25.83
2022-08-17T15:30:20.008Z,25.85
2022-08-17T15:32:54.002Z,25.54
2022-08-17T15:35:27.384Z,25.68
2022-08-17T15:38:04.941Z,25.64
2022-08-17T15:40:37.263Z,25.62
2022-08-17T15:43:11.282Z,25.77
2022-08-17T15:45:39.038Z,25.71
2022-08-17T15:48:05.877Z,25.77
2022-08-17T15:50:32.674Z,25.84
2022-08-17T15:53:01.180Z,25.91
2022-08-17T15:55:30.541Z,25.72
2022-08-17T15:57:57.250Z,25.70
2022-08-17T16:00:24.143Z,25.92
2022-08-17T16:03:45.965Z,25.77
2022-08-17T16:05:40.800Z,25.64
2022-08-17T16:08:08.143Z,25.61
2022-08-17T16:10:36.100Z,25.62
2022-08-17T16:13:04.404Z,25.52
2022-08-17T16:15:31.737Z,25.66
2022-08-17T16:17:58.952Z,25.45
2022-08-17T16:20:26.170Z,25.46
2022-08-17T16:22:54.197Z,25.34
2022-08-17T16:25:47.230Z,25.57
2022-08-17T16:28:12.960Z,25.63
2022-08-17T16:30:41.290Z,25.72
2022-08-17T16:33:11.386Z,25.58
2022-08-17T16:35:38.882Z,25.59
2022-08-17T16:38:07.075Z,25.57
2022-08-17T16:40:36.112Z,25.48
2022-08-17T16:43:04.378Z,25.38
2022-08-17T16:45:36.570Z,25.51
2022-08-17T16:48:03.981Z,25.43
2022-08-17T16:50:32.041Z,25.50
2022-08-17T16:53:16.220Z,25.44
2022-08-17T16:55:47.382Z,25.40
2022-08-17T16:58:15.242Z,25.22
2022-08-17T17:00:44.419Z,25.33
2022-08-17T17:03:18.949Z,25.16
2022-08-17T17:06:03.565Z,25.21
2022-08-17T17:08:38.321Z,25.22
2022-08-17T17:11:14.919Z,25.38
2022-08-17T17:13:54.442Z,25.31
2022-08-17T17:16:29.276Z,25.24
2022-08-17T17:19:14.480Z,25.34
2022-08-17T17:22:04.805Z,25.30
2022-08-17T17:24:36.921Z,25.29
2022-08-17T17:27:15.833Z,25.49
2022-08-17T17:30:13.929Z,25.07
2022-08-17T17:32:54.633Z,24.85
2022-08-17T17:35:53.951Z,24.92
2022-08-17T17:38:29.188Z,24.91
2022-08-17T17:41:03.039Z,24.75
2022-08-17T17:43:39.626Z,24.76
2022-08-17T17:46:26.746Z,24.69
2022-08-17T17:49:09.504Z,24.56
2022-08-17T17:52:09.606Z,24.45
2022-08-17T17:55:05.281Z,24.45
2022-08-17T17:57:45.048Z,24.24
2022-08-17T18:00:22.041Z,24.19
2022-08-17T18:03:25.905Z,24.21
2022-08-17T18:06:05.096Z,24.33
2022-08-17T18:11:25.119Z,24.11
2022-08-17T18:14:19.930Z,24.08
2022-08-17T18:16:51.526Z,24.00
2022-08-17T18:19:25.000Z,23.96
2022-08-17T18:22:01.360Z,23.88
2022-08-17T18:24:34.459Z,23.93
2022-08-17T18:27:02.999Z,23.99
2022-08-17T18:29:44.596Z,23.87
2022-08-17T18:32:15.950Z,23.80
2022-08-17T18:34:47.750Z,23.88
2022-08-17T18:37:32.082Z,23.65
2022-08-17T18:39:58.989Z,23.57
2022-08-17T18:42:29.664Z,23.51
2022-08-17T18:44:56.435Z,23.52
2022-08-17T18:47:28.684Z,23.44
2022-08-17T18:50:21.237Z,23.46
2022-08-17T18:52:48.696Z,23.58
2022-08-17T18:55:21.457Z,23.49
2022-08-17T18:57:55.650Z,23.44
2022-08-17T19:00:39.400Z,23.49
2022-08-17T19:03:15.262Z,23.37
2022-08-17T19:05:43.349Z,23.37
2022-08-17T19:08:23.863Z,23.28
2022-08-17T19:10:59.534Z,23.33
2022-08-17T19:13:35.340Z,23.26
2022-08-17T19:16:14.162Z,23.26
2022-08-17T19:18:49.378Z,23.25
2022-08-17T19:21:22.871Z,23.19
2022-08-17T19:24:00.602Z,23.16
2022-08-17T19:26:54.646Z,23.22
2022-08-17T19:29:44.202Z,23.19
2022-08-17T19:32:15.833Z,23.27
2022-08-17T19:34:44.830Z,23.22
2022-08-17T19:37:17.537Z,23.11
2022-08-17T19:40:00.186Z,23.13
2022-08-17T19:42:37.281Z,23.19
2022-08-17T19:45:16.198Z,23.15
2022-08-17T19:47:59.485Z,23.16
2022-08-17T19:50:41.139Z,23.05
2022-08-17T19:53:47.806Z,23.30
2022-08-17T19:56:35.302Z,23.26
2022-08-17T19:59:10.946Z,23.16
2022-08-17T20:01:43.579Z,23.10
2022-08-17T20:04:32.876Z,23.18
2022-08-17T20:07:06.224Z,23.23
2022-08-17T20:09:44.925Z,23.22
2022-08-17T20:12:19.197Z,23.21
2022-08-17T20:15:18.421Z,23.15
2022-08-17T20:17:48.253Z,23.02
2022-08-17T20:20:21.421Z,22.89
2022-08-17T20:22:58.625Z,22.73
2022-08-17T20:25:54.707Z,22.53
2022-08-17T20:28:29.544Z,21.77
2022-08-17T20:30:59.889Z,21.41
2022-08-17T20:33:30.537Z,21.03
2022-08-17T20:36:24.289Z,20.83
2022-08-17T20:38:57.192Z,20.60
2022-08-17T20:41:28.394Z,20.30
2022-08-17T20:43:58.770Z,20.18
2022-08-17T20:46:37.967Z,19.98
2022-08-17T20:49:10.822Z,19.88
2022-08-17T20:52:01.441Z,19.64
2022-08-17T20:54:41.482Z,19.59
2022-08-17T20:57:14.086Z,19.58
2022-08-17T20:59:44.235Z,19.58
2022-08-17T21:02:19.445Z,19.63
2022-08-17T21:04:54.370Z,19.63
2022-08-17T21:07:24.058Z,19.58
2022-08-17T21:09:51.249Z,19.71
2022-08-17T21:12:42.530Z,19.59
2022-08-17T21:15:32.505Z,19.59
2022-08-17T21:18:23.349Z,19.57
2022-08-17T21:21:15.367Z,19.73
2022-08-17T21:24:06.964Z,19.57
2022-08-17T21:26:50.669Z,19.61
2022-08-17T21:29:31.467Z,19.72
2022-08-17T21:31:59.600Z,19.90
2022-08-17T21:34:35.059Z,19.77
2022-08-17T21:37:19.938Z,19.80
2022-08-17T21:40:11.378Z,19.88
2022-08-17T21:42:46.696Z,19.92
2022-08-17T21:45:22.531Z,19.78
2022-08-17T21:47:52.006Z,19.76
2022-08-17T21:50:22.829Z,19.74
2022-08-17T21:52:53.928Z,20.02
2022-08-17T21:55:31.009Z,19.90
2022-08-17T21:58:13.699Z,19.83
2022-08-17T22:00:44.481Z,19.93
2022-08-17T22:03:24.204Z,19.86
2022-08-17T22:05:51.478Z,19.89
2022-08-17T22:08:23.731Z,20.00
2022-08-17T22:10:51.782Z,20.16
2022-08-17T22:13:18.429Z,20.13
2022-08-17T22:16:28.969Z,20.14
2022-08-17T22:18:58.782Z,20.04
2022-08-17T22:21:26.853Z,20.03
2022-08-17T22:24:20.353Z,20.00
2022-08-17T22:27:10.378Z,19.88
2022-08-17T22:30:00.452Z,19.93
2022-08-17T22:32:36.056Z,19.88
2022-08-17T22:35:34.394Z,19.93
2022-08-17T22:38:19.485Z,19.90
2022-08-17T22:40:49.806Z,19.99
2022-08-17T22:43:21.287Z,19.81
2022-08-17T22:45:55.661Z,19.80
2022-08-17T22:48:27.129Z,19.81
2022-08-17T22:51:12.780Z,19.90
2022-08-17T22:54:17.944Z,20.03
2022-08-17T22:57:20.189Z,19.95
2022-08-17T22:59:50.604Z,19.98
2022-08-17T23:02:19.645Z,19.98
2022-08-17T23:04:53.509Z,19.85
2022-08-17T23:07:21.684Z,19.87
2022-08-17T23:09:48.557Z,19.91
2022-08-17T23:12:21.708Z,19.87
2022-08-17T23:14:51.390Z,20.00
2022-08-17T23:17:18.238Z,20.00
2022-08-17T23:19:45.431Z,19.91
2022-08-17T23:22:15.437Z,19.96
2022-08-17T23:24:46.912Z,20.01
2022-08-17T23:27:13.684Z,20.05
2022-08-17T23:29:42.024Z,20.08
2022-08-17T23:32:14.982Z,20.11
2022-08-17T23:34:43.405Z,20.18
2022-08-17T23:37:11.652Z,20.15
2022-08-17T23:39:39.441Z,20.36
2022-08-17T23:42:08.644Z,20.35
2022-08-17T23:44:37.559Z,20.41
2022-08-17T23:47:04.908Z,20.32
2022-08-17T23:49:32.360Z,20.27
2022-08-17T23:52:01.813Z,20.34
2022-08-17T23:54:38.604Z,20.49
2022-08-17T23:57:05.331Z,20.29
2022-08-17T23:59:33.898Z,20.30
